Assaria, Kansas
Current Conditions -  °F | °C
As of 10:53 AM on Saturday 25 Oct 2014 (Local Time) from KSLN Reporting Station
Clear Clear  
Wind Chill: 68°   Ceiling: Unl
Heat Index: 68°   Visibility: 8mi
Dew Point: 61°   Wind: 5mph
Humidity: 78%   Direction: 120°ESE
Pressure: 30.07"   Gusts: NA
Location:  38.68°N, 97.6°W
Report Text: KSLN 251553Z 12004KT 8SM CLR 20/16 A3007 RMK AO2 SLP176 T02000161
Loading
Personal Weather Stations






























Interactive Weather Map
Tropical Storm Tracking
New forecast layout! Learn more

10-Day Weather Forecast

Advertisements
Track Severe Weather on mobile